sensor_id;sensor_type;location;lat;lon;timestamp;P1;durP1;ratioP1;P2;durP2;ratioP2
74833;SDS011;63361;52.384;20.930;2024-03-06T00:01:29;70.93;;;34.97;;
74833;SDS011;63361;52.384;20.930;2024-03-06T00:03:54;66.80;;;34.37;;
74833;SDS011;63361;52.384;20.930;2024-03-06T00:06:20;75.50;;;33.20;;
74833;SDS011;63361;52.384;20.930;2024-03-06T00:08:45;69.47;;;33.47;;
74833;SDS011;63361;52.384;20.930;2024-03-06T00:11:11;75.37;;;32.93;;
74833;SDS011;63361;52.384;20.930;2024-03-06T00:13:36;70.77;;;32.40;;
74833;SDS011;63361;52.384;20.930;2024-03-06T00:16:02;69.37;;;32.83;;
74833;SDS011;63361;52.384;20.930;2024-03-06T00:18:27;76.85;;;32.47;;
74833;SDS011;63361;52.384;20.930;2024-03-06T00:20:53;71.73;;;34.03;;
74833;SDS011;63361;52.384;20.930;2024-03-06T00:23:19;68.65;;;34.03;;
74833;SDS011;63361;52.384;20.930;2024-03-06T00:25:44;76.17;;;34.57;;
74833;SDS011;63361;52.384;20.930;2024-03-06T00:28:10;69.03;;;33.97;;
74833;SDS011;63361;52.384;20.930;2024-03-06T00:30:35;64.13;;;32.10;;
74833;SDS011;63361;52.384;20.930;2024-03-06T00:33:00;65.03;;;31.60;;
74833;SDS011;63361;52.384;20.930;2024-03-06T00:35:26;69.07;;;32.70;;
74833;SDS011;63361;52.384;20.930;2024-03-06T00:37:53;65.38;;;31.20;;
74833;SDS011;63361;52.384;20.930;2024-03-06T00:40:19;68.77;;;31.83;;
74833;SDS011;63361;52.384;20.930;2024-03-06T00:42:44;70.03;;;32.33;;
74833;SDS011;63361;52.384;20.930;2024-03-06T00:45:10;70.03;;;32.27;;
74833;SDS011;63361;52.384;20.930;2024-03-06T00:47:36;62.65;;;31.15;;
74833;SDS011;63361;52.384;20.930;2024-03-06T00:50:01;68.07;;;32.23;;
74833;SDS011;63361;52.384;20.930;2024-03-06T00:52:27;55.70;;;30.17;;
74833;SDS011;63361;52.384;20.930;2024-03-06T00:54:52;63.58;;;31.70;;
74833;SDS011;63361;52.384;20.930;2024-03-06T00:57:18;58.67;;;29.97;;
74833;SDS011;63361;52.384;20.930;2024-03-06T00:59:43;68.40;;;31.73;;
74833;SDS011;63361;52.384;20.930;2024-03-06T01:02:08;55.77;;;28.47;;
74833;SDS011;63361;52.384;20.930;2024-03-06T01:04:34;57.63;;;28.53;;
74833;SDS011;63361;52.384;20.930;2024-03-06T01:06:59;54.58;;;28.65;;
74833;SDS011;63361;52.384;20.930;2024-03-06T01:09:25;59.30;;;28.20;;
74833;SDS011;63361;52.384;20.930;2024-03-06T01:11:52;53.55;;;26.92;;
74833;SDS011;63361;52.384;20.930;2024-03-06T01:14:17;59.77;;;26.40;;
74833;SDS011;63361;52.384;20.930;2024-03-06T01:16:43;60.70;;;27.67;;
74833;SDS011;63361;52.384;20.930;2024-03-06T01:19:08;58.07;;;26.80;;
74833;SDS011;63361;52.384;20.930;2024-03-06T01:21:34;50.85;;;26.77;;
74833;SDS011;63361;52.384;20.930;2024-03-06T01:24:00;51.77;;;25.37;;
74833;SDS011;63361;52.384;20.930;2024-03-06T01:26:26;48.45;;;24.20;;
74833;SDS011;63361;52.384;20.930;2024-03-06T01:28:51;49.33;;;23.47;;
74833;SDS011;63361;52.384;20.930;2024-03-06T01:31:16;48.80;;;25.52;;
74833;SDS011;63361;52.384;20.930;2024-03-06T01:33:42;45.00;;;23.13;;
74833;SDS011;63361;52.384;20.930;2024-03-06T01:36:07;46.20;;;24.47;;
74833;SDS011;63361;52.384;20.930;2024-03-06T01:38:33;45.17;;;22.90;;
74833;SDS011;63361;52.384;20.930;2024-03-06T01:40:58;45.08;;;24.00;;
74833;SDS011;63361;52.384;20.930;2024-03-06T01:43:24;42.30;;;23.23;;
74833;SDS011;63361;52.384;20.930;2024-03-06T01:45:51;45.28;;;23.35;;
74833;SDS011;63361;52.384;20.930;2024-03-06T01:48:19;44.53;;;23.67;;
74833;SDS011;63361;52.384;20.930;2024-03-06T01:50:48;48.50;;;24.98;;
74833;SDS011;63361;52.384;20.930;2024-03-06T01:53:14;46.40;;;23.25;;
74833;SDS011;63361;52.384;20.930;2024-03-06T01:55:42;42.65;;;22.45;;
74833;SDS011;63361;52.384;20.930;2024-03-06T01:58:08;44.83;;;23.27;;
74833;SDS011;63361;52.384;20.930;2024-03-06T02:00:34;43.65;;;23.08;;
74833;SDS011;63361;52.384;20.930;2024-03-06T02:03:00;42.97;;;21.23;;
74833;SDS011;63361;52.384;20.930;2024-03-06T02:05:26;44.07;;;22.03;;
74833;SDS011;63361;52.384;20.930;2024-03-06T02:07:54;45.33;;;24.02;;
74833;SDS011;63361;52.384;20.930;2024-03-06T02:10:22;43.85;;;21.98;;
74833;SDS011;63361;52.384;20.930;2024-03-06T02:12:48;43.25;;;22.23;;
74833;SDS011;63361;52.384;20.930;2024-03-06T02:15:14;40.97;;;19.67;;
74833;SDS011;63361;52.384;20.930;2024-03-06T02:17:40;40.67;;;22.70;;
74833;SDS011;63361;52.384;20.930;2024-03-06T02:20:07;49.67;;;23.47;;
74833;SDS011;63361;52.384;20.930;2024-03-06T02:22:37;40.03;;;22.00;;
74833;SDS011;63361;52.384;20.930;2024-03-06T02:25:03;43.83;;;21.95;;
74833;SDS011;63361;52.384;20.930;2024-03-06T02:27:29;40.83;;;21.75;;
74833;SDS011;63361;52.384;20.930;2024-03-06T02:29:56;43.40;;;22.25;;
74833;SDS011;63361;52.384;20.930;2024-03-06T02:32:21;42.30;;;21.20;;
74833;SDS011;63361;52.384;20.930;2024-03-06T02:34:48;47.97;;;24.35;;
74833;SDS011;63361;52.384;20.930;2024-03-06T02:37:13;43.37;;;22.20;;
74833;SDS011;63361;52.384;20.930;2024-03-06T02:39:38;47.47;;;23.20;;
74833;SDS011;63361;52.384;20.930;2024-03-06T02:42:04;42.23;;;22.80;;
74833;SDS011;63361;52.384;20.930;2024-03-06T02:44:29;46.63;;;22.10;;
74833;SDS011;63361;52.384;20.930;2024-03-06T02:46:55;44.45;;;21.35;;
74833;SDS011;63361;52.384;20.930;2024-03-06T02:49:20;39.00;;;20.00;;
74833;SDS011;63361;52.384;20.930;2024-03-06T02:51:45;44.37;;;22.60;;
74833;SDS011;63361;52.384;20.930;2024-03-06T02:54:11;48.67;;;21.37;;
74833;SDS011;63361;52.384;20.930;2024-03-06T02:56:36;42.10;;;20.27;;
74833;SDS011;63361;52.384;20.930;2024-03-06T02:59:02;42.42;;;21.02;;
74833;SDS011;63361;52.384;20.930;2024-03-06T03:01:28;45.13;;;21.43;;
74833;SDS011;63361;52.384;20.930;2024-03-06T03:03:54;42.67;;;21.85;;
74833;SDS011;63361;52.384;20.930;2024-03-06T03:06:20;50.08;;;22.33;;
74833;SDS011;63361;52.384;20.930;2024-03-06T03:08:49;45.55;;;22.20;;
74833;SDS011;63361;52.384;20.930;2024-03-06T03:11:14;42.83;;;20.15;;
74833;SDS011;63361;52.384;20.930;2024-03-06T03:13:41;42.33;;;21.63;;
74833;SDS011;63361;52.384;20.930;2024-03-06T03:16:06;40.78;;;21.33;;
74833;SDS011;63361;52.384;20.930;2024-03-06T03:18:32;49.77;;;22.10;;
74833;SDS011;63361;52.384;20.930;2024-03-06T03:20:57;37.93;;;20.57;;
74833;SDS011;63361;52.384;20.930;2024-03-06T03:23:23;45.13;;;21.55;;
74833;SDS011;63361;52.384;20.930;2024-03-06T03:25:48;49.70;;;22.23;;
74833;SDS011;63361;52.384;20.930;2024-03-06T03:28:14;41.80;;;20.77;;
74833;SDS011;63361;52.384;20.930;2024-03-06T03:30:40;44.85;;;23.33;;
74833;SDS011;63361;52.384;20.930;2024-03-06T03:33:09;48.10;;;20.48;;
74833;SDS011;63361;52.384;20.930;2024-03-06T03:35:34;46.23;;;22.97;;
74833;SDS011;63361;52.384;20.930;2024-03-06T03:37:59;44.93;;;20.83;;
74833;SDS011;63361;52.384;20.930;2024-03-06T03:40:25;43.47;;;22.17;;
74833;SDS011;63361;52.384;20.930;2024-03-06T03:42:50;40.30;;;19.60;;
74833;SDS011;63361;52.384;20.930;2024-03-06T03:45:16;44.50;;;21.53;;
74833;SDS011;63361;52.384;20.930;2024-03-06T03:47:41;41.93;;;20.17;;
74833;SDS011;63361;52.384;20.930;2024-03-06T03:50:08;47.28;;;21.08;;
74833;SDS011;63361;52.384;20.930;2024-03-06T03:52:34;49.75;;;22.80;;
74833;SDS011;63361;52.384;20.930;2024-03-06T03:54:59;40.93;;;20.33;;
74833;SDS011;63361;52.384;20.930;2024-03-06T03:57:25;43.93;;;21.07;;
74833;SDS011;63361;52.384;20.930;2024-03-06T03:59:50;40.87;;;20.67;;
74833;SDS011;63361;52.384;20.930;2024-03-06T04:02:16;45.42;;;22.02;;
74833;SDS011;63361;52.384;20.930;2024-03-06T04:04:42;41.70;;;20.53;;
74833;SDS011;63361;52.384;20.930;2024-03-06T04:07:07;44.10;;;19.87;;
74833;SDS011;63361;52.384;20.930;2024-03-06T04:09:33;42.55;;;21.83;;
74833;SDS011;63361;52.384;20.930;2024-03-06T04:12:02;40.67;;;19.80;;
74833;SDS011;63361;52.384;20.930;2024-03-06T04:14:28;39.87;;;21.33;;
74833;SDS011;63361;52.384;20.930;2024-03-06T04:16:55;42.28;;;20.30;;
74833;SDS011;63361;52.384;20.930;2024-03-06T04:19:20;37.95;;;19.48;;
74833;SDS011;63361;52.384;20.930;2024-03-06T04:21:46;34.40;;;18.80;;
74833;SDS011;63361;52.384;20.930;2024-03-06T04:24:11;39.00;;;19.23;;
74833;SDS011;63361;52.384;20.930;2024-03-06T04:26:36;36.97;;;19.40;;
74833;SDS011;63361;52.384;20.930;2024-03-06T04:29:02;41.17;;;19.70;;
74833;SDS011;63361;52.384;20.930;2024-03-06T04:31:28;38.72;;;19.67;;
74833;SDS011;63361;52.384;20.930;2024-03-06T04:33:53;37.25;;;18.50;;
74833;SDS011;63361;52.384;20.930;2024-03-06T04:36:19;37.10;;;17.50;;
74833;SDS011;63361;52.384;20.930;2024-03-06T04:38:44;40.80;;;19.50;;
74833;SDS011;63361;52.384;20.930;2024-03-06T04:41:10;35.90;;;18.90;;
74833;SDS011;63361;52.384;20.930;2024-03-06T04:43:35;40.58;;;17.98;;
74833;SDS011;63361;52.384;20.930;2024-03-06T04:46:01;37.03;;;17.60;;
74833;SDS011;63361;52.384;20.930;2024-03-06T04:48:27;35.03;;;17.63;;
74833;SDS011;63361;52.384;20.930;2024-03-06T04:50:52;36.00;;;16.10;;
74833;SDS011;63361;52.384;20.930;2024-03-06T04:53:18;30.77;;;16.23;;
74833;SDS011;63361;52.384;20.930;2024-03-06T04:55:45;34.28;;;16.70;;
74833;SDS011;63361;52.384;20.930;2024-03-06T04:58:11;41.42;;;18.33;;
74833;SDS011;63361;52.384;20.930;2024-03-06T05:00:37;32.85;;;14.75;;
74833;SDS011;63361;52.384;20.930;2024-03-06T05:03:02;35.80;;;15.93;;
74833;SDS011;63361;52.384;20.930;2024-03-06T05:05:28;31.57;;;15.50;;
74833;SDS011;63361;52.384;20.930;2024-03-06T05:07:54;26.85;;;14.38;;
74833;SDS011;63361;52.384;20.930;2024-03-06T05:10:19;33.90;;;16.07;;
74833;SDS011;63361;52.384;20.930;2024-03-06T05:12:45;32.57;;;16.37;;
74833;SDS011;63361;52.384;20.930;2024-03-06T05:15:10;33.73;;;18.03;;
74833;SDS011;63361;52.384;20.930;2024-03-06T05:17:36;28.88;;;15.20;;
74833;SDS011;63361;52.384;20.930;2024-03-06T05:20:02;34.53;;;16.50;;
74833;SDS011;63361;52.384;20.930;2024-03-06T05:22:30;32.90;;;15.45;;
74833;SDS011;63361;52.384;20.930;2024-03-06T05:24:56;26.47;;;15.33;;
74833;SDS011;63361;52.384;20.930;2024-03-06T05:27:21;32.08;;;16.63;;
74833;SDS011;63361;52.384;20.930;2024-03-06T05:29:47;25.33;;;13.07;;
74833;SDS011;63361;52.384;20.930;2024-03-06T05:32:12;29.40;;;13.30;;
74833;SDS011;63361;52.384;20.930;2024-03-06T05:34:37;27.77;;;15.17;;
74833;SDS011;63361;52.384;20.930;2024-03-06T05:37:03;26.50;;;15.05;;
74833;SDS011;63361;52.384;20.930;2024-03-06T05:39:29;31.87;;;14.63;;
74833;SDS011;63361;52.384;20.930;2024-03-06T05:41:59;27.85;;;14.55;;
74833;SDS011;63361;52.384;20.930;2024-03-06T05:44:27;29.42;;;13.82;;
74833;SDS011;63361;52.384;20.930;2024-03-06T05:46:53;28.77;;;13.53;;
74833;SDS011;63361;52.384;20.930;2024-03-06T05:49:18;28.37;;;14.00;;
74833;SDS011;63361;52.384;20.930;2024-03-06T05:51:43;26.17;;;13.70;;
74833;SDS011;63361;52.384;20.930;2024-03-06T05:54:10;31.00;;;13.87;;
74833;SDS011;63361;52.384;20.930;2024-03-06T05:56:35;31.45;;;13.45;;
74833;SDS011;63361;52.384;20.930;2024-03-06T05:59:01;23.43;;;11.63;;
74833;SDS011;63361;52.384;20.930;2024-03-06T06:01:32;24.45;;;12.25;;
74833;SDS011;63361;52.384;20.930;2024-03-06T06:03:58;24.87;;;12.87;;
74833;SDS011;63361;52.384;20.930;2024-03-06T06:06:25;25.27;;;12.07;;
74833;SDS011;63361;52.384;20.930;2024-03-06T06:08:50;25.37;;;12.90;;
74833;SDS011;63361;52.384;20.930;2024-03-06T06:11:16;23.08;;;11.50;;
74833;SDS011;63361;52.384;20.930;2024-03-06T06:13:42;25.27;;;11.67;;
74833;SDS011;63361;52.384;20.930;2024-03-06T06:16:07;26.00;;;11.50;;
74833;SDS011;63361;52.384;20.930;2024-03-06T06:18:33;23.08;;;11.00;;
74833;SDS011;63361;52.384;20.930;2024-03-06T06:20:58;25.63;;;9.97;;
74833;SDS011;63361;52.384;20.930;2024-03-06T06:23:24;26.23;;;9.73;;
74833;SDS011;63361;52.384;20.930;2024-03-06T06:25:50;25.58;;;10.80;;
74833;SDS011;63361;52.384;20.930;2024-03-06T06:28:16;19.75;;;9.85;;
74833;SDS011;63361;52.384;20.930;2024-03-06T06:30:41;22.30;;;10.80;;
74833;SDS011;63361;52.384;20.930;2024-03-06T06:33:07;21.13;;;11.83;;
74833;SDS011;63361;52.384;20.930;2024-03-06T06:35:33;20.48;;;9.77;;
74833;SDS011;63361;52.384;20.930;2024-03-06T06:37:59;20.10;;;10.38;;
74833;SDS011;63361;52.384;20.930;2024-03-06T06:40:25;20.58;;;9.43;;
74833;SDS011;63361;52.384;20.930;2024-03-06T06:42:52;22.63;;;9.60;;
74833;SDS011;63361;52.384;20.930;2024-03-06T06:45:19;21.23;;;10.20;;
74833;SDS011;63361;52.384;20.930;2024-03-06T06:47:45;19.13;;;9.98;;
74833;SDS011;63361;52.384;20.930;2024-03-06T06:50:11;17.35;;;9.25;;
74833;SDS011;63361;52.384;20.930;2024-03-06T06:52:37;21.33;;;10.10;;
74833;SDS011;63361;52.384;20.930;2024-03-06T06:55:03;17.50;;;8.50;;
74833;SDS011;63361;52.384;20.930;2024-03-06T06:57:29;20.92;;;9.88;;
74833;SDS011;63361;52.384;20.930;2024-03-06T06:59:55;19.60;;;10.00;;
74833;SDS011;63361;52.384;20.930;2024-03-06T07:02:20;17.73;;;10.15;;
74833;SDS011;63361;52.384;20.930;2024-03-06T07:04:46;19.45;;;9.90;;
74833;SDS011;63361;52.384;20.930;2024-03-06T07:07:13;21.97;;;10.73;;
74833;SDS011;63361;52.384;20.930;2024-03-06T07:09:39;21.92;;;10.80;;
74833;SDS011;63361;52.384;20.930;2024-03-06T07:12:04;24.33;;;10.50;;
74833;SDS011;63361;52.384;20.930;2024-03-06T07:14:30;19.00;;;8.73;;
74833;SDS011;63361;52.384;20.930;2024-03-06T07:16:55;19.87;;;9.97;;
74833;SDS011;63361;52.384;20.930;2024-03-06T07:19:21;21.23;;;10.77;;
74833;SDS011;63361;52.384;20.930;2024-03-06T07:21:46;21.87;;;10.20;;
74833;SDS011;63361;52.384;20.930;2024-03-06T07:24:12;23.13;;;11.38;;
74833;SDS011;63361;52.384;20.930;2024-03-06T07:26:37;26.03;;;10.93;;
74833;SDS011;63361;52.384;20.930;2024-03-06T07:29:03;20.50;;;9.83;;
74833;SDS011;63361;52.384;20.930;2024-03-06T07:31:29;22.75;;;10.23;;
74833;SDS011;63361;52.384;20.930;2024-03-06T07:33:54;22.13;;;8.93;;
74833;SDS011;63361;52.384;20.930;2024-03-06T07:36:20;24.97;;;10.87;;
74833;SDS011;63361;52.384;20.930;2024-03-06T07:38:46;20.48;;;9.68;;
74833;SDS011;63361;52.384;20.930;2024-03-06T07:41:11;22.15;;;11.82;;
74833;SDS011;63361;52.384;20.930;2024-03-06T07:43:37;18.23;;;8.57;;
74833;SDS011;63361;52.384;20.930;2024-03-06T07:46:03;22.50;;;10.43;;
74833;SDS011;63361;52.384;20.930;2024-03-06T07:48:35;22.77;;;11.00;;
74833;SDS011;63361;52.384;20.930;2024-03-06T07:51:01;20.63;;;9.98;;
74833;SDS011;63361;52.384;20.930;2024-03-06T07:53:27;22.20;;;9.90;;
74833;SDS011;63361;52.384;20.930;2024-03-06T07:55:52;21.50;;;10.50;;
74833;SDS011;63361;52.384;20.930;2024-03-06T07:58:17;21.57;;;9.20;;
74833;SDS011;63361;52.384;20.930;2024-03-06T08:00:43;18.97;;;9.47;;
74833;SDS011;63361;52.384;20.930;2024-03-06T08:03:08;16.95;;;8.32;;
74833;SDS011;63361;52.384;20.930;2024-03-06T08:05:34;17.53;;;9.10;;
74833;SDS011;63361;52.384;20.930;2024-03-06T08:08:58;20.33;;;9.68;;
74833;SDS011;63361;52.384;20.930;2024-03-06T08:12:22;21.45;;;8.65;;
74833;SDS011;63361;52.384;20.930;2024-03-06T08:15:46;17.17;;;9.38;;
74833;SDS011;63361;52.384;20.930;2024-03-06T08:19:10;18.50;;;8.77;;
74833;SDS011;63361;52.384;20.930;2024-03-06T08:21:36;18.13;;;8.55;;
74833;SDS011;63361;52.384;20.930;2024-03-06T08:24:02;20.23;;;10.37;;
74833;SDS011;63361;52.384;20.930;2024-03-06T08:26:27;19.93;;;9.50;;
74833;SDS011;63361;52.384;20.930;2024-03-06T08:28:53;19.03;;;10.07;;
74833;SDS011;63361;52.384;20.930;2024-03-06T08:31:18;18.67;;;9.83;;
74833;SDS011;63361;52.384;20.930;2024-03-06T08:33:46;22.52;;;9.32;;
74833;SDS011;63361;52.384;20.930;2024-03-06T08:36:12;16.67;;;8.98;;
74833;SDS011;63361;52.384;20.930;2024-03-06T08:38:38;23.93;;;9.90;;
74833;SDS011;63361;52.384;20.930;2024-03-06T08:41:05;20.15;;;10.02;;
74833;SDS011;63361;52.384;20.930;2024-03-06T08:43:31;24.52;;;10.60;;
74833;SDS011;63361;52.384;20.930;2024-03-06T08:45:56;20.33;;;9.47;;
74833;SDS011;63361;52.384;20.930;2024-03-06T08:48:22;17.23;;;10.00;;
74833;SDS011;63361;52.384;20.930;2024-03-06T08:50:47;23.67;;;10.37;;
74833;SDS011;63361;52.384;20.930;2024-03-06T08:53:13;22.10;;;9.95;;
74833;SDS011;63361;52.384;20.930;2024-03-06T08:55:39;17.47;;;9.87;;
74833;SDS011;63361;52.384;20.930;2024-03-06T08:58:04;16.65;;;7.97;;
74833;SDS011;63361;52.384;20.930;2024-03-06T09:00:29;21.63;;;9.67;;
74833;SDS011;63361;52.384;20.930;2024-03-06T09:14:03;22.23;;;9.87;;
74833;SDS011;63361;52.384;20.930;2024-03-06T09:16:29;16.33;;;8.75;;
74833;SDS011;63361;52.384;20.930;2024-03-06T09:18:54;19.90;;;8.53;;
74833;SDS011;63361;52.384;20.930;2024-03-06T09:21:19;22.33;;;8.33;;
74833;SDS011;63361;52.384;20.930;2024-03-06T09:23:47;23.35;;;9.05;;
74833;SDS011;63361;52.384;20.930;2024-03-06T09:26:16;17.55;;;8.43;;
74833;SDS011;63361;52.384;20.930;2024-03-06T09:28:41;18.73;;;9.53;;
74833;SDS011;63361;52.384;20.930;2024-03-06T09:31:07;19.13;;;8.03;;
74833;SDS011;63361;52.384;20.930;2024-03-06T09:33:32;14.90;;;7.37;;
74833;SDS011;63361;52.384;20.930;2024-03-06T09:35:58;16.15;;;7.78;;
74833;SDS011;63361;52.384;20.930;2024-03-06T09:38:24;20.52;;;9.25;;
74833;SDS011;63361;52.384;20.930;2024-03-06T09:40:49;18.07;;;9.00;;
74833;SDS011;63361;52.384;20.930;2024-03-06T09:43:16;17.97;;;8.63;;
74833;SDS011;63361;52.384;20.930;2024-03-06T09:45:44;21.35;;;9.07;;
74833;SDS011;63361;52.384;20.930;2024-03-06T09:48:13;18.75;;;8.57;;
74833;SDS011;63361;52.384;20.930;2024-03-06T09:50:38;19.50;;;8.50;;
74833;SDS011;63361;52.384;20.930;2024-03-06T09:53:10;14.80;;;7.55;;
74833;SDS011;63361;52.384;20.930;2024-03-06T09:55:40;16.77;;;8.18;;
74833;SDS011;63361;52.384;20.930;2024-03-06T09:58:07;16.42;;;8.38;;
74833;SDS011;63361;52.384;20.930;2024-03-06T10:00:33;13.23;;;6.07;;
74833;SDS011;63361;52.384;20.930;2024-03-06T10:03:03;13.38;;;7.75;;
74833;SDS011;63361;52.384;20.930;2024-03-06T10:05:33;15.43;;;7.90;;
74833;SDS011;63361;52.384;20.930;2024-03-06T10:08:02;15.50;;;7.60;;
74833;SDS011;63361;52.384;20.930;2024-03-06T10:10:31;19.55;;;8.25;;
74833;SDS011;63361;52.384;20.930;2024-03-06T10:12:56;16.90;;;7.67;;
74833;SDS011;63361;52.384;20.930;2024-03-06T10:15:28;18.95;;;6.55;;
74833;SDS011;63361;52.384;20.930;2024-03-06T10:20:38;18.57;;;7.13;;
74833;SDS011;63361;52.384;20.930;2024-03-06T10:23:03;13.02;;;5.45;;
74833;SDS011;63361;52.384;20.930;2024-03-06T10:25:29;18.87;;;8.37;;
74833;SDS011;63361;52.384;20.930;2024-03-06T10:28:04;17.03;;;6.87;;
74833;SDS011;63361;52.384;20.930;2024-03-06T10:30:32;12.68;;;6.03;;
74833;SDS011;63361;52.384;20.930;2024-03-06T10:33:00;10.70;;;5.40;;
74833;SDS011;63361;52.384;20.930;2024-03-06T10:35:25;12.43;;;6.30;;
74833;SDS011;63361;52.384;20.930;2024-03-06T10:38:35;11.38;;;5.28;;
74833;SDS011;63361;52.384;20.930;2024-03-06T10:41:03;10.75;;;5.88;;
74833;SDS011;63361;52.384;20.930;2024-03-06T10:43:32;12.77;;;5.40;;
74833;SDS011;63361;52.384;20.930;2024-03-06T10:46:00;15.77;;;6.85;;
74833;SDS011;63361;52.384;20.930;2024-03-06T10:48:29;12.73;;;5.78;;
74833;SDS011;63361;52.384;20.930;2024-03-06T10:50:55;10.07;;;4.97;;
74833;SDS011;63361;52.384;20.930;2024-03-06T10:53:22;14.77;;;5.60;;
74833;SDS011;63361;52.384;20.930;2024-03-06T10:55:51;12.53;;;5.80;;
74833;SDS011;63361;52.384;20.930;2024-03-06T10:58:17;15.57;;;6.40;;
74833;SDS011;63361;52.384;20.930;2024-03-06T11:00:45;9.98;;;4.45;;
74833;SDS011;63361;52.384;20.930;2024-03-06T11:03:12;12.98;;;5.05;;
74833;SDS011;63361;52.384;20.930;2024-03-06T11:05:42;11.38;;;5.35;;
74833;SDS011;63361;52.384;20.930;2024-03-06T11:08:09;10.93;;;4.97;;
74833;SDS011;63361;52.384;20.930;2024-03-06T11:10:36;11.38;;;4.85;;
74833;SDS011;63361;52.384;20.930;2024-03-06T11:13:03;11.63;;;3.90;;
74833;SDS011;63361;52.384;20.930;2024-03-06T11:15:34;9.48;;;3.97;;
74833;SDS011;63361;52.384;20.930;2024-03-06T11:18:38;9.40;;;4.57;;
74833;SDS011;63361;52.384;20.930;2024-03-06T11:23:28;9.45;;;3.80;;
74833;SDS011;63361;52.384;20.930;2024-03-06T11:28:23;8.93;;;3.40;;
74833;SDS011;63361;52.384;20.930;2024-03-06T11:30:56;9.73;;;4.83;;
74833;SDS011;63361;52.384;20.930;2024-03-06T11:36:14;9.05;;;4.32;;
74833;SDS011;63361;52.384;20.930;2024-03-06T11:39:27;9.77;;;4.70;;
74833;SDS011;63361;52.384;20.930;2024-03-06T11:44:05;8.87;;;4.73;;
74833;SDS011;63361;52.384;20.930;2024-03-06T11:49:28;9.27;;;4.20;;
74833;SDS011;63361;52.384;20.930;2024-03-06T11:51:57;9.90;;;4.53;;
74833;SDS011;63361;52.384;20.930;2024-03-06T11:54:24;8.25;;;4.25;;
74833;SDS011;63361;52.384;20.930;2024-03-06T11:56:52;9.77;;;4.37;;
74833;SDS011;63361;52.384;20.930;2024-03-06T11:59:25;9.73;;;4.55;;
74833;SDS011;63361;52.384;20.930;2024-03-06T12:01:52;9.70;;;4.40;;
74833;SDS011;63361;52.384;20.930;2024-03-06T12:04:21;8.10;;;4.25;;
74833;SDS011;63361;52.384;20.930;2024-03-06T12:06:47;9.07;;;4.13;;
74833;SDS011;63361;52.384;20.930;2024-03-06T12:09:13;7.27;;;3.87;;
74833;SDS011;63361;52.384;20.930;2024-03-06T12:11:40;10.15;;;3.75;;
74833;SDS011;63361;52.384;20.930;2024-03-06T12:14:08;9.25;;;4.45;;
74833;SDS011;63361;52.384;20.930;2024-03-06T12:16:37;8.25;;;4.30;;
74833;SDS011;63361;52.384;20.930;2024-03-06T12:19:03;8.90;;;3.87;;
74833;SDS011;63361;52.384;20.930;2024-03-06T12:21:33;9.63;;;4.25;;
74833;SDS011;63361;52.384;20.930;2024-03-06T12:24:05;9.87;;;3.93;;
74833;SDS011;63361;52.384;20.930;2024-03-06T12:26:31;9.15;;;3.40;;
74833;SDS011;63361;52.384;20.930;2024-03-06T12:29:07;8.05;;;4.00;;
74833;SDS011;63361;52.384;20.930;2024-03-06T12:31:37;9.40;;;4.57;;
74833;SDS011;63361;52.384;20.930;2024-03-06T12:34:04;8.68;;;3.50;;
74833;SDS011;63361;52.384;20.930;2024-03-06T12:36:31;9.15;;;4.15;;
74833;SDS011;63361;52.384;20.930;2024-03-06T12:39:04;9.50;;;4.07;;
74833;SDS011;63361;52.384;20.930;2024-03-06T12:41:37;11.90;;;4.32;;
74833;SDS011;63361;52.384;20.930;2024-03-06T12:44:06;8.73;;;4.27;;
74833;SDS011;63361;52.384;20.930;2024-03-06T12:46:34;10.55;;;5.00;;
74833;SDS011;63361;52.384;20.930;2024-03-06T12:48:59;11.73;;;5.40;;
74833;SDS011;63361;52.384;20.930;2024-03-06T12:51:25;12.07;;;4.70;;
74833;SDS011;63361;52.384;20.930;2024-03-06T12:53:50;9.10;;;4.93;;
74833;SDS011;63361;52.384;20.930;2024-03-06T12:56:16;8.47;;;3.90;;
74833;SDS011;63361;52.384;20.930;2024-03-06T12:58:42;9.25;;;4.03;;
74833;SDS011;63361;52.384;20.930;2024-03-06T13:01:07;9.43;;;4.00;;
74833;SDS011;63361;52.384;20.930;2024-03-06T13:03:33;9.47;;;4.80;;
74833;SDS011;63361;52.384;20.930;2024-03-06T13:05:58;10.60;;;4.15;;
74833;SDS011;63361;52.384;20.930;2024-03-06T13:08:24;8.30;;;3.90;;
74833;SDS011;63361;52.384;20.930;2024-03-06T13:10:50;9.43;;;4.30;;
74833;SDS011;63361;52.384;20.930;2024-03-06T13:13:15;8.07;;;4.13;;
74833;SDS011;63361;52.384;20.930;2024-03-06T13:15:40;11.23;;;4.43;;
74833;SDS011;63361;52.384;20.930;2024-03-06T13:18:06;8.23;;;4.27;;
74833;SDS011;63361;52.384;20.930;2024-03-06T13:20:32;8.60;;;4.28;;
74833;SDS011;63361;52.384;20.930;2024-03-06T13:22:58;6.33;;;3.13;;
74833;SDS011;63361;52.384;20.930;2024-03-06T13:25:24;9.85;;;4.25;;
74833;SDS011;63361;52.384;20.930;2024-03-06T13:27:49;8.20;;;3.63;;
74833;SDS011;63361;52.384;20.930;2024-03-06T13:30:19;12.43;;;4.65;;
74833;SDS011;63361;52.384;20.930;2024-03-06T13:32:45;9.20;;;3.90;;
74833;SDS011;63361;52.384;20.930;2024-03-06T13:35:11;8.73;;;3.40;;
74833;SDS011;63361;52.384;20.930;2024-03-06T13:37:39;8.23;;;4.20;;
74833;SDS011;63361;52.384;20.930;2024-03-06T13:40:06;6.80;;;3.45;;
74833;SDS011;63361;52.384;20.930;2024-03-06T13:42:32;11.13;;;4.60;;
74833;SDS011;63361;52.384;20.930;2024-03-06T13:44:58;9.65;;;4.15;;
74833;SDS011;63361;52.384;20.930;2024-03-06T13:47:23;8.00;;;3.70;;
74833;SDS011;63361;52.384;20.930;2024-03-06T13:49:49;8.60;;;4.00;;
74833;SDS011;63361;52.384;20.930;2024-03-06T13:52:14;8.83;;;4.77;;
74833;SDS011;63361;52.384;20.930;2024-03-06T13:54:40;10.07;;;4.40;;
74833;SDS011;63361;52.384;20.930;2024-03-06T13:57:07;7.47;;;3.53;;
74833;SDS011;63361;52.384;20.930;2024-03-06T13:59:33;7.78;;;3.65;;
74833;SDS011;63361;52.384;20.930;2024-03-06T14:01:59;10.85;;;5.07;;
74833;SDS011;63361;52.384;20.930;2024-03-06T14:04:25;9.35;;;4.80;;
74833;SDS011;63361;52.384;20.930;2024-03-06T14:06:52;10.07;;;4.27;;
74833;SDS011;63361;52.384;20.930;2024-03-06T14:09:17;10.90;;;5.23;;
74833;SDS011;63361;52.384;20.930;2024-03-06T14:11:43;8.23;;;3.70;;
74833;SDS011;63361;52.384;20.930;2024-03-06T14:14:08;13.07;;;4.43;;
74833;SDS011;63361;52.384;20.930;2024-03-06T14:16:34;10.07;;;4.47;;
74833;SDS011;63361;52.384;20.930;2024-03-06T14:19:00;8.57;;;3.97;;
74833;SDS011;63361;52.384;20.930;2024-03-06T14:21:25;8.27;;;3.17;;
74833;SDS011;63361;52.384;20.930;2024-03-06T14:23:51;14.63;;;5.55;;
74833;SDS011;63361;52.384;20.930;2024-03-06T14:26:16;7.43;;;3.37;;
74833;SDS011;63361;52.384;20.930;2024-03-06T14:28:42;13.60;;;4.30;;
74833;SDS011;63361;52.384;20.930;2024-03-06T14:31:07;10.10;;;4.53;;
74833;SDS011;63361;52.384;20.930;2024-03-06T14:33:35;8.88;;;4.55;;
74833;SDS011;63361;52.384;20.930;2024-03-06T14:36:02;10.77;;;4.35;;
74833;SDS011;63361;52.384;20.930;2024-03-06T14:38:28;8.13;;;3.67;;
74833;SDS011;63361;52.384;20.930;2024-03-06T14:40:53;9.60;;;4.30;;
74833;SDS011;63361;52.384;20.930;2024-03-06T14:43:18;9.25;;;4.07;;